ěÝzenÝ letovÚho provozu ╚eskÚ republiky
Letiste: LKTB Aktualizace: 25.05.2024 07:31:04  UTC
 METAR LKTB 25.05. 07:30 ...
METAR LKTB 250730Z 13009KT 9999 -SHRA SCT018TCU 18/14 Q1019 NOSIG=
 TAF LKTB 25.05. 05:00 ...
TAF LKTB 250500Z 2506/2606 06006KT CAVOK      BECMG 2508/2510 9999 SCT035      TEMPO 2510/2522 20016KT 6000 SHRA SCT027CB      PROB40 TEMPO 2510/2521 3000 TSRA BKN020CB      BECMG 2522/2600 10006KT CAVOK      PROB30 TEMPO 2602/2604 4000 TSRA BKN020CB      PROB30 TEMPO 2604/2606 3000 BR SCT003=